Accueil
METAR-TAF:

METAR-TAF

Aéroports :

Carcassonne, France

Aéroport de Carcassonne Salvaza

latitude: 43-13N, longitude: 002-19E, altitude: 130 m

Observation

Le bulletin a été fait il y a 27 minutes, à 10:00 UTC
Vent 10 kt de ouest, variant entre sud-ouest et ouest/nord-ouest
Température 4°C
Humidité 65%
Pression 1009 hPa
Visibilité 10 km ou plus
pas de nuages en-dessous de 1500 mètres et pas de cumulonimbus.

METAR: LFMK 241000Z AUTO 27010KT 230V300 CAVOK 04/M02 Q1009 NOSIG

Heure: 11:27 (10:27 UTC)

Prévision

Le bulletin a été fait il y a 2 heures et 27 minutes, à 08:00 UTC
Prévision valable du 24 à 09 UTC au 25 à 09 UTC
Vent 10 kt de ouest/nord-ouest
Visibilité 10 km ou plus
pas de nuages en-dessous de 1500 mètres et pas de cumulonimbus.
Temporairement
du 24 à 21 UTC au 25 à 03 UTC
Nuages fragmentés à une hauteur de 1400 ft

TAF: LFMK 240800Z 2409/2509 29010KT CAVOK TEMPO 2421/2503 BKN014

Observations et prévisions météorologiques de plus de 4000 aéroports (messages METAR et TAF).

Les stations disponibles sont représentées par des disques jaunes et rouges sur la carte.

Passer la souris dessus pour voir le nom de la station.

Cliquer dessus pour voir les observations et prévisions météorologiques.

Pour changer de carte: cliquez sur les boutons verts avec une croix noire pour zoomer, sur le bouton vert avec un tiret pour effectuer un zoom arrière, ou sur les flèches vertes pour les cartes adjacentes.


METAR-TAF: